createdAt,value
2018-06-21T00:01:15.170Z,101043.67
2018-06-21T00:03:43.482Z,101044.17
2018-06-21T00:06:11.851Z,101035.86
2018-06-21T00:08:40.199Z,101036.97
2018-06-21T00:11:08.510Z,101033.75
2018-06-21T00:13:36.896Z,101024.45
2018-06-21T00:16:05.559Z,101024.69
2018-06-21T00:18:34.074Z,101015.02
2018-06-21T00:21:02.642Z,101007.09
2018-06-21T00:23:30.964Z,101010.45
2018-06-21T00:25:59.300Z,101009.68
2018-06-21T00:28:27.642Z,101003.14
2018-06-21T00:30:55.980Z,101007.97
2018-06-21T00:33:24.321Z,101000.89
2018-06-21T00:35:52.680Z,100996.94
2018-06-21T00:38:21.157Z,100993.22
2018-06-21T00:40:49.495Z,100995.95
2018-06-21T00:43:17.820Z,100985.78
2018-06-21T00:45:46.166Z,100984.16
2018-06-21T00:48:14.568Z,100980.28
2018-06-21T00:50:42.880Z,100980.41
2018-06-21T00:53:12.050Z,100979.19
2018-06-21T00:55:51.922Z,100976.69
2018-06-21T00:58:20.277Z,100981.77
2018-06-21T01:00:48.627Z,100980.65
2018-06-21T01:03:16.955Z,100976.30
2018-06-21T01:05:45.312Z,100973.21
2018-06-21T01:08:14.506Z,100968.63
2018-06-21T01:10:42.863Z,100968.00
2018-06-21T01:13:11.203Z,100962.78
2018-06-21T01:15:39.547Z,100958.34
2018-06-21T01:18:07.892Z,100958.94
2018-06-21T01:20:36.231Z,100956.84
2018-06-21T01:23:04.855Z,100956.95
2018-06-21T01:25:33.251Z,100952.23
2018-06-21T01:28:01.702Z,100949.64
2018-06-21T01:30:30.051Z,100944.83
2018-06-21T01:32:58.405Z,100944.56
2018-06-21T01:35:26.749Z,100940.48
2018-06-21T01:37:55.101Z,100938.48
2018-06-21T01:40:23.441Z,100932.31
2018-06-21T01:42:51.785Z,100932.77
2018-06-21T01:45:20.165Z,100932.17
2018-06-21T01:47:48.508Z,100926.47
2018-06-21T01:50:16.853Z,100929.55
2018-06-21T01:52:45.591Z,100923.11
2018-06-21T01:55:13.950Z,100920.03
2018-06-21T01:57:42.632Z,100917.67
2018-06-21T02:00:10.985Z,100919.30
2018-06-21T02:02:39.330Z,100916.17
2018-06-21T02:05:07.674Z,100917.41
2018-06-21T02:07:36.455Z,100908.51
2018-06-21T02:10:04.908Z,100907.38
2018-06-21T02:12:33.256Z,100911.09
2018-06-21T02:15:01.597Z,100908.88
2018-06-21T02:17:29.949Z,100909.73
2018-06-21T02:19:58.293Z,100904.29
2018-06-21T02:22:26.638Z,100907.38
2018-06-21T02:24:55.024Z,100902.56
2018-06-21T02:27:23.396Z,100895.36
2018-06-21T02:29:51.755Z,100893.05
2018-06-21T02:32:20.080Z,100898.09
2018-06-21T02:34:48.463Z,100890.05
2018-06-21T02:37:16.811Z,100879.67
2018-06-21T02:39:45.150Z,100885.11
2018-06-21T02:42:13.596Z,100883.38
2018-06-21T02:44:42.040Z,100881.63
2018-06-21T02:47:10.395Z,100872.23
2018-06-21T02:49:38.735Z,100866.80
2018-06-21T02:52:07.115Z,100867.52
2018-06-21T02:54:35.760Z,100859.12
2018-06-21T02:57:04.250Z,100855.05
2018-06-21T02:59:32.700Z,100852.83
2018-06-21T03:02:01.023Z,100843.80
2018-06-21T03:04:29.355Z,100843.04
2018-06-21T03:06:57.704Z,100847.48
2018-06-21T03:09:26.062Z,100845.16
2018-06-21T03:11:54.405Z,100845.03
2018-06-21T03:14:22.737Z,100837.10
2018-06-21T03:16:51.121Z,100836.60
2018-06-21T03:19:19.460Z,100832.16
2018-06-21T03:21:47.805Z,100825.72
2018-06-21T03:24:16.148Z,100824.23
2018-06-21T03:26:44.476Z,100824.36
2018-06-21T03:29:12.835Z,100816.09
2018-06-21T03:31:41.186Z,100823.99
2018-06-21T03:34:09.519Z,100827.21
2018-06-21T03:36:37.946Z,100822.64
2018-06-21T03:39:07.014Z,100815.60
2018-06-21T03:41:35.394Z,100819.68
2018-06-21T03:44:03.795Z,100810.89
2018-06-21T03:46:32.128Z,100805.21
2018-06-21T03:49:00.491Z,100798.27
2018-06-21T03:51:28.836Z,100791.73
2018-06-21T03:53:57.210Z,100789.77
2018-06-21T03:56:25.592Z,100798.06
2018-06-21T03:58:53.936Z,100792.98
2018-06-21T04:01:22.282Z,100797.80
2018-06-21T04:03:50.627Z,100791.25
2018-06-21T04:06:19.007Z,100786.07
2018-06-21T04:08:47.357Z,100789.87
2018-06-21T04:11:15.763Z,100790.00
2018-06-21T04:13:44.112Z,100786.05
2018-06-21T04:16:12.662Z,100788.16
2018-06-21T04:18:41.245Z,100792.01
2018-06-21T04:21:10.104Z,100791.73
2018-06-21T04:23:38.514Z,100784.33
2018-06-21T04:26:06.899Z,100780.96
2018-06-21T04:28:35.547Z,100779.72
2018-06-21T04:31:03.879Z,100781.59
2018-06-21T04:33:32.238Z,100777.88
2018-06-21T04:36:00.579Z,100775.53
2018-06-21T04:38:28.935Z,100776.50
2018-06-21T04:40:58.115Z,100771.89
2018-06-21T04:43:26.469Z,100767.59
2018-06-21T04:45:54.863Z,100769.43
2018-06-21T04:48:23.193Z,100768.58
2018-06-21T04:50:51.533Z,100766.69
2018-06-21T04:53:19.881Z,100763.85
2018-06-21T04:55:48.227Z,100757.37
2018-06-21T04:58:16.609Z,100749.05
2018-06-21T05:00:46.082Z,100743.95
2018-06-21T05:03:14.452Z,100738.22
2018-06-21T05:05:42.935Z,100732.22
2018-06-21T05:08:11.300Z,100728.98
2018-06-21T05:10:39.681Z,100729.30
2018-06-21T05:13:08.043Z,100728.52
2018-06-21T05:15:36.392Z,100724.77
2018-06-21T05:18:04.764Z,100721.22
2018-06-21T05:20:33.101Z,100728.23
2018-06-21T05:23:01.595Z,100732.60
2018-06-21T05:25:29.960Z,100737.12
2018-06-21T05:27:58.316Z,100742.28
2018-06-21T05:30:26.658Z,100737.83
2018-06-21T05:32:55.624Z,100728.12
2018-06-21T05:35:24.032Z,100726.45
2018-06-21T05:37:52.411Z,100725.67
2018-06-21T05:40:28.924Z,100719.83
2018-06-21T05:42:57.430Z,100715.65
2018-06-21T05:45:25.814Z,100713.88
2018-06-21T05:47:54.177Z,100697.14
2018-06-21T05:50:22.664Z,100703.55
2018-06-21T05:52:51.244Z,100693.38
2018-06-21T05:55:19.733Z,100688.36
2018-06-21T05:57:48.105Z,100688.30
2018-06-21T06:00:16.461Z,100685.77
2018-06-21T06:02:44.812Z,100683.31
2018-06-21T06:05:13.149Z,100678.19
2018-06-21T06:07:41.626Z,100676.98
2018-06-21T06:10:10.033Z,100676.93
2018-06-21T06:12:38.391Z,100671.11
2018-06-21T06:15:06.765Z,100666.07
2018-06-21T06:17:35.587Z,100666.55
2018-06-21T06:20:04.029Z,100667.86
2018-06-21T06:22:32.347Z,100664.67
2018-06-21T06:25:00.730Z,100658.13
2018-06-21T06:27:29.113Z,100661.53
2018-06-21T06:29:57.448Z,100657.00
2018-06-21T06:32:25.825Z,100650.20
2018-06-21T06:34:54.244Z,100653.05
2018-06-21T06:37:22.611Z,100645.09
2018-06-21T06:39:50.966Z,100641.05
2018-06-21T06:42:19.336Z,100641.61
2018-06-21T06:44:47.707Z,100638.84
2018-06-21T06:47:16.113Z,100638.17
2018-06-21T06:49:44.484Z,100629.95
2018-06-21T06:52:12.851Z,100627.25
2018-06-21T06:54:41.391Z,100629.09
2018-06-21T06:57:09.724Z,100624.30
2018-06-21T06:59:38.092Z,100609.64
2018-06-21T07:02:06.478Z,100610.42
2018-06-21T07:04:34.860Z,100603.48
2018-06-21T07:07:03.310Z,100587.67
2018-06-21T07:09:31.649Z,100593.72
2018-06-21T07:11:59.996Z,100588.29
2018-06-21T07:14:28.387Z,100578.78
2018-06-21T07:16:56.749Z,100578.27
2018-06-21T07:19:25.100Z,100568.40
2018-06-21T07:21:53.492Z,100570.91
2018-06-21T07:24:21.902Z,100560.34
2018-06-21T07:26:50.377Z,100553.47
2018-06-21T07:29:18.743Z,100549.77
2018-06-21T07:31:47.072Z,100537.41
2018-06-21T07:34:15.436Z,100534.63
2018-06-21T07:36:43.787Z,100532.70
2018-06-21T07:39:12.132Z,100520.48
2018-06-21T07:41:40.481Z,100524.93
2018-06-21T07:44:08.813Z,100506.02
2018-06-21T07:46:37.168Z,100502.52
2018-06-21T07:49:05.565Z,100494.55
2018-06-21T07:51:33.956Z,100486.69
2018-06-21T07:54:02.310Z,100484.81
2018-06-21T07:56:30.689Z,100478.61
2018-06-21T07:58:59.080Z,100474.30
2018-06-21T08:01:27.387Z,100468.30
2018-06-21T08:03:55.821Z,100463.22
2018-06-21T08:06:24.179Z,100465.71
2018-06-21T08:08:52.515Z,100460.26
2018-06-21T08:11:20.928Z,100459.72
2018-06-21T08:13:49.340Z,100459.20
2018-06-21T08:16:17.677Z,100449.96
2018-06-21T08:18:46.044Z,100447.57
2018-06-21T08:21:14.401Z,100451.22
2018-06-21T08:23:42.794Z,100445.47
2018-06-21T08:26:11.152Z,100435.36
2018-06-21T08:28:39.571Z,100427.65
2018-06-21T08:31:07.900Z,100427.05
2018-06-21T08:33:36.227Z,100423.17
2018-06-21T08:36:04.614Z,100410.59
2018-06-21T08:38:32.930Z,100408.56
2018-06-21T08:41:01.262Z,100401.94
2018-06-21T08:43:29.609Z,100406.80
2018-06-21T08:45:58.001Z,100402.20
2018-06-21T08:48:26.287Z,100397.09
2018-06-21T08:50:54.621Z,100395.38
2018-06-21T08:53:23.000Z,100390.30
2018-06-21T08:55:51.369Z,100390.13
2018-06-21T08:58:19.905Z,100380.23
2018-06-21T09:00:48.267Z,100379.66
2018-06-21T09:03:16.607Z,100380.45
2018-06-21T09:05:44.936Z,100364.07
2018-06-21T09:08:13.276Z,100360.45
2018-06-21T09:10:41.779Z,100353.30
2018-06-21T09:13:10.122Z,100346.66
2018-06-21T09:15:38.460Z,100334.73
2018-06-21T09:18:06.794Z,100338.48
2018-06-21T09:20:35.142Z,100337.12
2018-06-21T09:23:03.501Z,100330.83
2018-06-21T09:25:31.869Z,100320.10
2018-06-21T09:28:00.218Z,100318.25
2018-06-21T09:30:28.553Z,100318.36
2018-06-21T09:32:56.876Z,100305.47
2018-06-21T09:35:25.197Z,100304.64
2018-06-21T09:37:58.825Z,100306.53
2018-06-21T09:40:32.517Z,100299.02
2018-06-21T09:43:06.163Z,100304.42
2018-06-21T09:45:39.811Z,100303.25
2018-06-21T09:48:14.089Z,100298.46
2018-06-21T09:50:42.466Z,100285.55
2018-06-21T09:53:10.848Z,100293.03
2018-06-21T09:55:39.293Z,100300.47
2018-06-21T09:58:07.620Z,100287.55
2018-06-21T10:00:41.280Z,100289.28
2018-06-21T10:03:09.623Z,100269.28
2018-06-21T10:05:39.735Z,100276.84
2018-06-21T10:08:08.146Z,100271.30
2018-06-21T10:10:36.549Z,100267.73
2018-06-21T10:13:04.938Z,100272.19
2018-06-21T10:15:33.275Z,100260.57
2018-06-21T10:18:02.016Z,100253.80
2018-06-21T10:20:30.384Z,100261.15
2018-06-21T10:22:58.787Z,100264.27
2018-06-21T10:25:27.189Z,100265.00
2018-06-21T10:27:55.517Z,100257.72
2018-06-21T10:30:24.402Z,100252.94
2018-06-21T10:32:53.245Z,100270.20
2018-06-21T10:35:21.605Z,100344.78
2018-06-21T10:37:49.960Z,100377.13
2018-06-21T10:40:18.366Z,100392.61
2018-06-21T10:42:46.744Z,100415.52
2018-06-21T10:45:15.163Z,100432.31
2018-06-21T10:47:43.567Z,100443.97
2018-06-21T10:50:11.887Z,100469.39
2018-06-21T10:52:40.230Z,100500.24
2018-06-21T10:55:08.702Z,100521.57
2018-06-21T10:57:37.033Z,100519.70
2018-06-21T11:00:05.787Z,100557.62
2018-06-21T11:02:34.144Z,100555.02
2018-06-21T11:05:02.514Z,100576.82
2018-06-21T11:07:30.841Z,100553.44
2018-06-21T11:12:26.617Z,100575.08
2018-06-21T11:14:55.072Z,100583.34
2018-06-21T11:17:23.321Z,100589.14
2018-06-21T11:19:51.692Z,100593.86
2018-06-21T11:22:20.033Z,100599.31
2018-06-21T11:24:48.367Z,100618.20
2018-06-21T11:27:16.715Z,100610.66
2018-06-21T11:29:45.075Z,100617.38
2018-06-21T11:32:13.474Z,100611.67
2018-06-21T11:34:44.917Z,100625.42
2018-06-21T11:37:13.274Z,100615.50
2018-06-21T11:39:41.629Z,100615.06
2018-06-21T11:42:09.957Z,100610.19
2018-06-21T11:44:38.309Z,100613.44
2018-06-21T11:47:06.647Z,100620.80
2018-06-21T11:49:35.072Z,100635.49
2018-06-21T11:52:03.475Z,100649.46
2018-06-21T11:54:31.804Z,100653.59
2018-06-21T11:57:00.132Z,100663.89
2018-06-21T11:59:28.453Z,100675.59
2018-06-21T12:01:56.788Z,100706.62
2018-06-21T12:04:25.580Z,100736.31
2018-06-21T12:06:54.541Z,100723.77
2018-06-21T12:09:22.870Z,100742.41
2018-06-21T12:11:51.229Z,100765.36
2018-06-21T12:14:19.583Z,100764.92
2018-06-21T12:16:47.928Z,100758.98
2018-06-21T12:19:16.363Z,100758.28
2018-06-21T12:21:44.723Z,100769.34
2018-06-21T12:24:13.562Z,100761.08
2018-06-21T12:26:42.116Z,100772.98
2018-06-21T12:29:10.558Z,100767.92
2018-06-21T12:31:39.024Z,100779.07
2018-06-21T12:34:07.368Z,100797.11
2018-06-21T12:36:35.763Z,100841.17
2018-06-21T12:39:05.931Z,100823.87
2018-06-21T12:41:34.521Z,100823.22
2018-06-21T12:44:03.491Z,100818.58
2018-06-21T12:46:33.869Z,100797.09
2018-06-21T12:49:02.257Z,100775.48
2018-06-21T12:51:30.633Z,100772.20
2018-06-21T12:53:58.996Z,100797.99
2018-06-21T12:56:27.501Z,100781.39
2018-06-21T12:58:55.857Z,100778.59
2018-06-21T13:01:24.206Z,100785.09
2018-06-21T13:03:53.008Z,100779.67
2018-06-21T13:06:21.355Z,100797.62
2018-06-21T13:09:00.984Z,100803.26
2018-06-21T13:12:39.376Z,100811.13
2018-06-21T13:15:07.746Z,100807.78
2018-06-21T13:17:36.261Z,100793.02
2018-06-21T13:20:05.878Z,100777.78
2018-06-21T13:22:34.260Z,100777.73
2018-06-21T13:25:02.669Z,100789.25
2018-06-21T13:27:31.015Z,100791.58
2018-06-21T13:29:59.353Z,100791.03
2018-06-21T13:32:27.760Z,100792.91
2018-06-21T13:34:56.114Z,100793.28
2018-06-21T13:37:25.032Z,100790.84
2018-06-21T13:39:53.420Z,100791.89
2018-06-21T13:42:21.784Z,100784.09
2018-06-21T13:44:50.185Z,100777.52
2018-06-21T13:47:18.593Z,100799.72
2018-06-21T13:49:47.109Z,100800.86
2018-06-21T13:52:15.688Z,100806.81
2018-06-21T13:54:44.182Z,100843.08
2018-06-21T13:57:12.758Z,100849.47
2018-06-21T13:59:41.218Z,100858.81
2018-06-21T14:02:09.611Z,100866.47
2018-06-21T14:04:37.963Z,100866.91
2018-06-21T14:07:06.312Z,100871.96
2018-06-21T14:09:34.720Z,100894.22
2018-06-21T14:12:03.320Z,100881.35
2018-06-21T14:14:31.817Z,100890.06
2018-06-21T14:17:01.022Z,100897.25
2018-06-21T14:19:29.500Z,100898.13
2018-06-21T14:21:57.899Z,100900.23
2018-06-21T14:24:28.016Z,100921.71
2018-06-21T14:26:56.343Z,100928.11
2018-06-21T14:29:24.866Z,100910.62
2018-06-21T14:31:53.236Z,100911.67
2018-06-21T14:34:21.595Z,100914.45
2018-06-21T14:36:49.945Z,100909.33
2018-06-21T14:39:18.284Z,100910.31
2018-06-21T14:41:46.644Z,100913.57
2018-06-21T14:44:15.160Z,100908.95
2018-06-21T14:46:43.478Z,100908.91
2018-06-21T14:49:11.871Z,100912.59
2018-06-21T14:51:40.205Z,100906.98
2018-06-21T14:54:08.586Z,100899.44
2018-06-21T14:56:37.553Z,100918.13
2018-06-21T14:59:06.044Z,100905.56
2018-06-21T15:01:34.404Z,100913.58
2018-06-21T15:04:02.748Z,100904.22
2018-06-21T15:06:31.139Z,100896.64
2018-06-21T15:08:59.543Z,100898.18
2018-06-21T15:11:27.822Z,100910.86
2018-06-21T15:13:56.164Z,100899.89
2018-06-21T15:16:24.814Z,100901.37
2018-06-21T15:18:53.157Z,100898.16
2018-06-21T15:21:21.519Z,100899.21
2018-06-21T15:23:49.848Z,100905.19
2018-06-21T15:26:18.196Z,100911.95
2018-06-21T15:28:46.566Z,100899.57
2018-06-21T15:31:14.949Z,100887.13
2018-06-21T15:33:43.332Z,100896.88
2018-06-21T15:36:11.656Z,100906.34
2018-06-21T15:38:40.212Z,100902.03
2018-06-21T15:41:08.568Z,100896.70
2018-06-21T15:43:36.916Z,100904.57
2018-06-21T15:46:05.339Z,100882.73
2018-06-21T15:48:33.676Z,100895.79
2018-06-21T15:51:02.017Z,100895.38
2018-06-21T15:53:30.394Z,100904.27
2018-06-21T15:55:58.838Z,100896.94
2018-06-21T15:58:27.364Z,100899.66
2018-06-21T16:00:55.828Z,100905.78
2018-06-21T16:03:24.632Z,100914.38
2018-06-21T16:05:53.029Z,100922.64
2018-06-21T16:08:21.460Z,100914.09
2018-06-21T16:10:49.833Z,100926.91
2018-06-21T16:13:18.560Z,100934.67
2018-06-21T16:15:48.636Z,100938.78
2018-06-21T16:18:17.155Z,100940.31
2018-06-21T16:20:45.607Z,100947.83
2018-06-21T16:23:14.107Z,100950.33
2018-06-21T16:25:43.420Z,100945.22
2018-06-21T16:28:11.805Z,100949.46
2018-06-21T16:30:40.146Z,100968.07
2018-06-21T16:33:08.968Z,100970.63
2018-06-21T16:35:37.309Z,100975.27
2018-06-21T16:38:05.821Z,100971.59
2018-06-21T16:40:34.159Z,100975.80
2018-06-21T16:43:02.488Z,100980.97
2018-06-21T16:45:30.864Z,100975.06
2018-06-21T16:47:59.239Z,100970.01
2018-06-21T16:50:27.709Z,100981.63
2018-06-21T16:52:56.065Z,100982.81
2018-06-21T16:55:24.414Z,100989.37
2018-06-21T16:57:52.768Z,100993.86
2018-06-21T17:00:21.203Z,100993.86
2018-06-21T17:02:49.555Z,100994.03
2018-06-21T17:05:17.966Z,101002.48
2018-06-21T17:07:46.312Z,100992.87
2018-06-21T17:10:14.691Z,101005.69
2018-06-21T17:12:43.048Z,100996.59
2018-06-21T17:15:11.449Z,101013.66
2018-06-21T17:17:40.233Z,101021.00
2018-06-21T17:20:08.545Z,101022.73
2018-06-21T17:22:36.929Z,101026.42
2018-06-21T17:25:06.051Z,101021.62
2018-06-21T17:27:34.545Z,101020.70
2018-06-21T17:30:03.099Z,101024.35
2018-06-21T17:32:31.500Z,101037.53
2018-06-21T17:35:00.700Z,101039.27
2018-06-21T17:37:29.386Z,101035.19
2018-06-21T17:39:57.971Z,101035.23
2018-06-21T17:42:26.380Z,101024.22
2018-06-21T17:44:54.766Z,101046.27
2018-06-21T17:47:23.240Z,101041.75
2018-06-21T17:49:51.653Z,101051.11
2018-06-21T17:52:20.046Z,101064.46
2018-06-21T17:54:48.428Z,101061.77
2018-06-21T17:57:16.974Z,101070.75
2018-06-21T17:59:45.892Z,101060.56
2018-06-21T18:02:14.245Z,101060.16
2018-06-21T18:04:42.873Z,101064.52
2018-06-21T18:07:11.269Z,101063.94
2018-06-21T18:09:39.615Z,101070.30
2018-06-21T18:12:08.028Z,101068.08
2018-06-21T18:14:36.372Z,101070.02
2018-06-21T18:17:04.740Z,101069.91
2018-06-21T18:19:33.160Z,101069.53
2018-06-21T18:22:01.583Z,101077.27
2018-06-21T18:24:29.946Z,101071.64
2018-06-21T18:26:58.353Z,101078.90
2018-06-21T18:29:26.752Z,101071.53
2018-06-21T18:31:55.260Z,101080.82
2018-06-21T18:34:23.635Z,101099.88
2018-06-21T18:36:52.063Z,101091.83
2018-06-21T18:39:20.478Z,101100.74
2018-06-21T18:41:48.851Z,101097.63
2018-06-21T18:44:17.260Z,101107.48
2018-06-21T18:46:46.328Z,101112.69
2018-06-21T18:49:14.672Z,101115.19
2018-06-21T18:51:43.043Z,101105.23
2018-06-21T18:54:11.416Z,101120.42
2018-06-21T18:56:39.784Z,101120.48
2018-06-21T18:59:08.107Z,101119.20
2018-06-21T19:01:36.460Z,101127.45
2018-06-21T19:04:04.836Z,101131.58
2018-06-21T19:06:38.700Z,101138.22
2018-06-21T19:10:15.101Z,101134.33
2018-06-21T19:12:43.497Z,101151.25
2018-06-21T19:15:12.047Z,101159.73
2018-06-21T19:17:40.397Z,101163.22
2018-06-21T19:20:08.940Z,101170.50
2018-06-21T19:22:37.347Z,101182.66
2018-06-21T19:25:05.848Z,101172.46
2018-06-21T19:27:34.297Z,101178.88
2018-06-21T19:30:02.631Z,101179.90
2018-06-21T19:32:31.390Z,101190.84
2018-06-21T19:34:59.837Z,101192.19
2018-06-21T19:37:28.255Z,101198.39
2018-06-21T19:39:56.680Z,101203.40
2018-06-21T19:42:25.115Z,101199.60
2018-06-21T19:44:53.546Z,101204.96
2018-06-21T19:47:22.893Z,101203.19
2018-06-21T19:49:51.273Z,101204.32
2018-06-21T19:52:19.624Z,101205.67
2018-06-21T19:54:47.975Z,101216.08
2018-06-21T19:57:17.079Z,101208.71
2018-06-21T19:59:45.512Z,101216.14
2018-06-21T20:02:13.928Z,101214.02
2018-06-21T20:04:42.443Z,101227.91
2018-06-21T20:07:11.815Z,101224.58
2018-06-21T20:09:40.253Z,101219.42
2018-06-21T20:12:08.703Z,101218.14
2018-06-21T20:14:37.654Z,101216.40
2018-06-21T20:17:06.184Z,101222.61
2018-06-21T20:19:39.787Z,101223.45
2018-06-21T20:22:08.202Z,101229.17
2018-06-21T20:24:36.880Z,101235.14
2018-06-21T20:27:05.287Z,101238.85
2018-06-21T20:29:33.624Z,101247.48
2018-06-21T20:32:02.123Z,101255.44
2018-06-21T20:34:30.704Z,101251.23
2018-06-21T20:36:59.286Z,101252.25
2018-06-21T20:39:27.717Z,101263.33
2018-06-21T20:41:56.356Z,101259.09
2018-06-21T20:44:24.714Z,101264.81
2018-06-21T20:46:53.347Z,101263.95
2018-06-21T20:49:21.796Z,101269.59
2018-06-21T20:51:50.279Z,101261.55
2018-06-21T20:54:18.624Z,101264.11
2018-06-21T20:56:47.044Z,101262.41
2018-06-21T20:59:15.385Z,101263.75
2018-06-21T21:01:43.727Z,101263.20
2018-06-21T21:04:12.056Z,101271.97
2018-06-21T21:06:40.400Z,101266.09
2018-06-21T21:09:08.948Z,101271.34
2018-06-21T21:11:37.298Z,101267.92
2018-06-21T21:14:05.656Z,101273.40
2018-06-21T21:16:34.018Z,101268.34
2018-06-21T21:19:02.538Z,101269.36
2018-06-21T21:21:30.883Z,101266.09
2018-06-21T21:23:59.244Z,101268.14
2018-06-21T21:26:27.639Z,101265.59
2018-06-21T21:28:55.969Z,101266.02
2018-06-21T21:31:24.328Z,101262.89
2018-06-21T21:33:52.861Z,101270.20
2018-06-21T21:36:21.240Z,101266.55
2018-06-21T21:38:49.609Z,101261.23
2018-06-21T21:41:17.953Z,101261.38
2018-06-21T21:43:46.299Z,101257.00
2018-06-21T21:46:14.627Z,101254.52
2018-06-21T21:48:43.088Z,101259.39
2018-06-21T21:51:11.617Z,101258.09
2018-06-21T21:53:40.089Z,101258.06
2018-06-21T21:56:08.426Z,101257.50
2018-06-21T21:58:36.780Z,101257.89
2018-06-21T22:01:05.179Z,101257.19
2018-06-21T22:03:33.484Z,101258.76
2018-06-21T22:06:01.826Z,101257.89
2018-06-21T22:08:30.187Z,101259.51
2018-06-21T22:10:58.586Z,101255.11
2018-06-21T22:13:26.949Z,101259.63
2018-06-21T22:15:55.392Z,101261.37
2018-06-21T22:18:23.736Z,101258.42
2018-06-21T22:20:52.064Z,101260.72
2018-06-21T22:23:20.399Z,101262.62
2018-06-21T22:25:48.755Z,101259.51
2018-06-21T22:28:17.100Z,101256.42
2018-06-21T22:30:45.426Z,101256.16
2018-06-21T22:33:14.007Z,101260.46
2018-06-21T22:35:42.525Z,101264.03
2018-06-21T22:38:10.906Z,101256.91
2018-06-21T22:40:39.234Z,101252.61
2018-06-21T22:43:07.581Z,101256.43
2018-06-21T22:45:35.956Z,101252.77
2018-06-21T22:48:04.304Z,101258.22
2018-06-21T22:50:32.691Z,101255.05
2018-06-21T22:53:01.032Z,101249.27
2018-06-21T22:55:29.390Z,101247.05
2018-06-21T22:57:57.826Z,101250.83
2018-06-21T23:00:26.168Z,101252.96
2018-06-21T23:02:54.497Z,101258.17
2018-06-21T23:05:22.859Z,101257.69
2018-06-21T23:07:51.204Z,101258.25
2018-06-21T23:10:19.525Z,101255.21
2018-06-21T23:12:47.875Z,101254.48
2018-06-21T23:15:16.235Z,101255.42
2018-06-21T23:17:44.552Z,101262.11
2018-06-21T23:20:12.914Z,101258.06
2018-06-21T23:22:41.252Z,101256.94
2018-06-21T23:25:09.584Z,101256.67
2018-06-21T23:27:37.906Z,101255.94
2018-06-21T23:30:06.253Z,101254.11
2018-06-21T23:32:34.614Z,101246.59
2018-06-21T23:35:02.945Z,101237.52
2018-06-21T23:37:31.275Z,101241.34
2018-06-21T23:39:59.618Z,101240.27
2018-06-21T23:42:28.015Z,101241.84
2018-06-21T23:44:56.339Z,101248.02
2018-06-21T23:47:24.672Z,101249.48
2018-06-21T23:49:53.011Z,101252.17
2018-06-21T23:52:21.346Z,101250.10
2018-06-21T23:54:49.666Z,101249.91
2018-06-21T23:57:18.015Z,101241.73
2018-06-21T23:59:46.353Z,101243.91
